sensor_id;sensor_type;location;lat;lon;timestamp;pressure;altitude;pressure_sealevel;temperature;humidity
40692;BME280;26377;53.344;14.886;2022-11-11T00:00:16;102431.02;;;12.74;69.91
40692;BME280;26377;53.344;14.886;2022-11-11T00:03:04;102436.34;;;12.74;69.89
40692;BME280;26377;53.344;14.886;2022-11-11T00:05:50;102434.13;;;12.73;69.89
40692;BME280;26377;53.344;14.886;2022-11-11T00:08:35;102431.02;;;12.74;69.94
40692;BME280;26377;53.344;14.886;2022-11-11T00:11:22;102431.89;;;12.74;69.93
40692;BME280;26377;53.344;14.886;2022-11-11T00:14:08;102418.05;;;12.76;69.91
40692;BME280;26377;53.344;14.886;2022-11-11T00:16:53;102418.09;;;12.75;69.87
40692;BME280;26377;53.344;14.886;2022-11-11T00:19:56;102433.18;;;12.76;69.89
40692;BME280;26377;53.344;14.886;2022-11-11T00:23:00;102450.48;;;12.76;69.88
40692;BME280;26377;53.344;14.886;2022-11-11T00:26:08;102451.73;;;12.77;69.91
40692;BME280;26377;53.344;14.886;2022-11-11T00:28:54;102455.29;;;12.78;69.90
40692;BME280;26377;53.344;14.886;2022-11-11T00:31:40;102457.95;;;12.78;69.89
40692;BME280;26377;53.344;14.886;2022-11-11T00:34:44;102466.91;;;12.75;69.85
40692;BME280;26377;53.344;14.886;2022-11-11T00:37:32;102473.13;;;12.76;69.88
40692;BME280;26377;53.344;14.886;2022-11-11T00:40:20;102473.58;;;12.75;69.86
40692;BME280;26377;53.344;14.886;2022-11-11T00:43:06;102471.36;;;12.75;69.85
40692;BME280;26377;53.344;14.886;2022-11-11T00:45:52;102468.30;;;12.74;69.85
40692;BME280;26377;53.344;14.886;2022-11-11T00:48:39;102469.63;;;12.74;69.85
40692;BME280;26377;53.344;14.886;2022-11-11T00:51:43;102456.36;;;12.72;69.81
40692;BME280;26377;53.344;14.886;2022-11-11T00:54:29;102440.37;;;12.72;69.82
40692;BME280;26377;53.344;14.886;2022-11-11T00:57:16;102434.66;;;12.71;69.82
40692;BME280;26377;53.344;14.886;2022-11-11T01:00:04;102436.38;;;12.72;69.83
40692;BME280;26377;53.344;14.886;2022-11-11T01:02:50;102433.32;;;12.71;69.83
40692;BME280;26377;53.344;14.886;2022-11-11T01:05:38;102426.30;;;12.69;69.82
40692;BME280;26377;53.344;14.886;2022-11-11T01:08:25;102427.23;;;12.68;69.83
40692;BME280;26377;53.344;14.886;2022-11-11T01:11:19;102418.36;;;12.67;69.77
40692;BME280;26377;53.344;14.886;2022-11-11T01:14:06;102427.28;;;12.66;69.78
40692;BME280;26377;53.344;14.886;2022-11-11T01:16:51;102427.33;;;12.65;69.79
40692;BME280;26377;53.344;14.886;2022-11-11T01:19:38;102426.00;;;12.65;69.80
40692;BME280;26377;53.344;14.886;2022-11-11T01:22:25;102430.92;;;12.64;69.78
40692;BME280;26377;53.344;14.886;2022-11-11T01:25:10;102433.19;;;12.63;69.81
40692;BME280;26377;53.344;14.886;2022-11-11T01:27:56;102433.19;;;12.63;69.78
40692;BME280;26377;53.344;14.886;2022-11-11T01:30:41;102429.64;;;12.62;69.75
40692;BME280;26377;53.344;14.886;2022-11-11T01:33:26;102427.02;;;12.61;69.76
40692;BME280;26377;53.344;14.886;2022-11-11T01:36:14;102430.56;;;12.61;69.75
40692;BME280;26377;53.344;14.886;2022-11-11T01:39:02;102436.83;;;12.60;69.76
40692;BME280;26377;53.344;14.886;2022-11-11T01:41:48;102443.05;;;12.59;69.75
40692;BME280;26377;53.344;14.886;2022-11-11T01:44:45;102438.25;;;12.57;69.76
40692;BME280;26377;53.344;14.886;2022-11-11T01:47:34;102450.67;;;12.57;69.72
40692;BME280;26377;53.344;14.886;2022-11-11T01:50:40;102452.89;;;12.57;69.73
40692;BME280;26377;53.344;14.886;2022-11-11T01:53:25;102462.20;;;12.57;69.76
40692;BME280;26377;53.344;14.886;2022-11-11T01:56:12;102467.94;;;12.58;69.70
40692;BME280;26377;53.344;14.886;2022-11-11T01:59:01;102459.09;;;12.58;69.72
40692;BME280;26377;53.344;14.886;2022-11-11T02:01:49;102461.23;;;12.60;69.73
40692;BME280;26377;53.344;14.886;2022-11-11T02:04:35;102453.24;;;12.60;69.69
40692;BME280;26377;53.344;14.886;2022-11-11T02:07:41;102458.17;;;12.59;69.63
40692;BME280;26377;53.344;14.886;2022-11-11T02:10:31;102462.66;;;12.57;69.63
40692;BME280;26377;53.344;14.886;2022-11-11T02:13:17;102463.14;;;12.56;69.61
40692;BME280;26377;53.344;14.886;2022-11-11T02:16:05;102468.06;;;12.55;69.59
40692;BME280;26377;53.344;14.886;2022-11-11T02:18:53;102468.51;;;12.55;69.53
40692;BME280;26377;53.344;14.886;2022-11-11T02:21:46;102474.36;;;12.53;69.52
40692;BME280;26377;53.344;14.886;2022-11-11T02:24:32;102475.69;;;12.53;69.48
40692;BME280;26377;53.344;14.886;2022-11-11T02:27:22;102469.48;;;12.52;69.45
40692;BME280;26377;53.344;14.886;2022-11-11T02:30:09;102477.51;;;12.51;69.40
40692;BME280;26377;53.344;14.886;2022-11-11T02:32:56;102476.22;;;12.49;69.38
40692;BME280;26377;53.344;14.886;2022-11-11T02:38:54;102468.80;;;12.46;69.27
40692;BME280;26377;53.344;14.886;2022-11-11T02:41:46;102471.56;;;12.43;69.27
40692;BME280;26377;53.344;14.886;2022-11-11T02:44:44;102472.97;;;12.41;69.25
40692;BME280;26377;53.344;14.886;2022-11-11T02:47:31;102462.41;;;12.38;69.18
40692;BME280;26377;53.344;14.886;2022-11-11T02:50:16;102454.06;;;12.36;69.16
40692;BME280;26377;53.344;14.886;2022-11-11T02:53:01;102461.20;;;12.34;69.15
40692;BME280;26377;53.344;14.886;2022-11-11T02:55:48;102472.78;;;12.33;69.12
40692;BME280;26377;53.344;14.886;2022-11-11T02:58:33;102466.61;;;12.32;69.12
40692;BME280;26377;53.344;14.886;2022-11-11T03:01:21;102463.06;;;12.32;69.12
40692;BME280;26377;53.344;14.886;2022-11-11T03:04:07;102461.38;;;12.29;69.08
40692;BME280;26377;53.344;14.886;2022-11-11T03:06:54;102452.58;;;12.27;69.06
40692;BME280;26377;53.344;14.886;2022-11-11T03:09:41;102444.64;;;12.26;69.05
40692;BME280;26377;53.344;14.886;2022-11-11T03:12:28;102443.76;;;12.25;69.02
40692;BME280;26377;53.344;14.886;2022-11-11T03:15:14;102431.83;;;12.24;69.04
40692;BME280;26377;53.344;14.886;2022-11-11T03:18:00;102426.63;;;12.21;68.97
40692;BME280;26377;53.344;14.886;2022-11-11T03:20:45;102416.44;;;12.20;68.95
40692;BME280;26377;53.344;14.886;2022-11-11T03:23:48;102408.09;;;12.18;68.94
40692;BME280;26377;53.344;14.886;2022-11-11T03:26:36;102406.84;;;12.15;68.92
40692;BME280;26377;53.344;14.886;2022-11-11T03:29:22;102408.34;;;12.10;68.88
40692;BME280;26377;53.344;14.886;2022-11-11T03:32:07;102411.14;;;12.06;68.85
40692;BME280;26377;53.344;14.886;2022-11-11T03:34:55;102407.75;;;12.01;68.80
40692;BME280;26377;53.344;14.886;2022-11-11T03:37:42;102412.31;;;11.97;68.84
40692;BME280;26377;53.344;14.886;2022-11-11T03:40:47;102424.52;;;11.90;68.77
40692;BME280;26377;53.344;14.886;2022-11-11T03:43:34;102426.14;;;11.81;68.76
40692;BME280;26377;53.344;14.886;2022-11-11T03:46:20;102427.66;;;11.75;68.73
40692;BME280;26377;53.344;14.886;2022-11-11T03:49:05;102423.43;;;11.68;68.78
40692;BME280;26377;53.344;14.886;2022-11-11T03:51:50;102433.37;;;11.61;68.75
40692;BME280;26377;53.344;14.886;2022-11-11T03:54:35;102438.41;;;11.56;68.75
40692;BME280;26377;53.344;14.886;2022-11-11T03:57:21;102438.16;;;11.49;68.73
40692;BME280;26377;53.344;14.886;2022-11-11T04:00:18;102443.63;;;11.44;68.76
40692;BME280;26377;53.344;14.886;2022-11-11T04:03:17;102435.84;;;11.37;68.79
40692;BME280;26377;53.344;14.886;2022-11-11T04:06:21;102445.73;;;11.32;68.81
40692;BME280;26377;53.344;14.886;2022-11-11T04:09:25;102448.61;;;11.24;68.87
40692;BME280;26377;53.344;14.886;2022-11-11T04:12:30;102445.66;;;11.19;68.90
40692;BME280;26377;53.344;14.886;2022-11-11T04:15:20;102447.50;;;11.17;68.97
40692;BME280;26377;53.344;14.886;2022-11-11T04:18:23;102456.94;;;11.12;69.00
40692;BME280;26377;53.344;14.886;2022-11-11T04:21:11;102461.03;;;11.08;69.00
40692;BME280;26377;53.344;14.886;2022-11-11T04:24:16;102457.13;;;11.05;69.07
40692;BME280;26377;53.344;14.886;2022-11-11T04:27:23;102464.72;;;11.02;69.15
40692;BME280;26377;53.344;14.886;2022-11-11T04:30:09;102465.19;;;11.02;69.23
40692;BME280;26377;53.344;14.886;2022-11-11T04:32:55;102466.02;;;11.04;69.31
40692;BME280;26377;53.344;14.886;2022-11-11T04:35:40;102468.66;;;11.04;69.36
40692;BME280;26377;53.344;14.886;2022-11-11T04:38:26;102471.70;;;11.06;69.41
40692;BME280;26377;53.344;14.886;2022-11-11T04:41:30;102472.58;;;11.07;69.44
40692;BME280;26377;53.344;14.886;2022-11-11T04:44:15;102476.97;;;11.08;69.50
40692;BME280;26377;53.344;14.886;2022-11-11T04:47:19;102481.36;;;11.09;69.49
40692;BME280;26377;53.344;14.886;2022-11-11T04:50:06;102472.95;;;11.09;69.54
40692;BME280;26377;53.344;14.886;2022-11-11T04:52:52;102468.45;;;11.11;69.57
40692;BME280;26377;53.344;14.886;2022-11-11T04:55:39;102463.59;;;11.12;69.59
40692;BME280;26377;53.344;14.886;2022-11-11T04:58:44;102455.55;;;11.14;69.62
40692;BME280;26377;53.344;14.886;2022-11-11T05:01:32;102451.56;;;11.14;69.61
40692;BME280;26377;53.344;14.886;2022-11-11T05:04:35;102447.58;;;11.14;69.62
40692;BME280;26377;53.344;14.886;2022-11-11T05:07:21;102450.30;;;11.12;69.66
40692;BME280;26377;53.344;14.886;2022-11-11T05:10:25;102452.08;;;11.12;69.66
40692;BME280;26377;53.344;14.886;2022-11-11T05:13:09;102454.73;;;11.12;69.68
40692;BME280;26377;53.344;14.886;2022-11-11T05:16:17;102451.16;;;11.13;69.69
40692;BME280;26377;53.344;14.886;2022-11-11T05:19:23;102442.78;;;11.12;69.71
40692;BME280;26377;53.344;14.886;2022-11-11T05:22:40;102448.91;;;11.14;69.70
40692;BME280;26377;53.344;14.886;2022-11-11T05:25:27;102445.88;;;11.11;69.73
40692;BME280;26377;53.344;14.886;2022-11-11T05:28:16;102453.84;;;11.11;69.75
40692;BME280;26377;53.344;14.886;2022-11-11T05:31:02;102452.08;;;11.12;69.78
40692;BME280;26377;53.344;14.886;2022-11-11T05:33:48;102460.41;;;11.14;69.79
40692;BME280;26377;53.344;14.886;2022-11-11T05:36:33;102462.15;;;11.15;69.82
40692;BME280;26377;53.344;14.886;2022-11-11T05:39:20;102467.02;;;11.16;69.80
40692;BME280;26377;53.344;14.886;2022-11-11T05:42:08;102464.33;;;11.17;69.80
40692;BME280;26377;53.344;14.886;2022-11-11T05:44:56;102465.17;;;11.18;69.80
40692;BME280;26377;53.344;14.886;2022-11-11T05:47:42;102458.91;;;11.20;69.79
40692;BME280;26377;53.344;14.886;2022-11-11T05:50:29;102466.43;;;11.21;69.80
40692;BME280;26377;53.344;14.886;2022-11-11T05:53:16;102467.25;;;11.23;69.80
40692;BME280;26377;53.344;14.886;2022-11-11T05:56:04;102471.16;;;11.26;69.79
40692;BME280;26377;53.344;14.886;2022-11-11T05:58:49;102474.22;;;11.27;69.81
40692;BME280;26377;53.344;14.886;2022-11-11T06:01:35;102470.16;;;11.30;69.78
40692;BME280;26377;53.344;14.886;2022-11-11T06:04:21;102475.88;;;11.31;69.75
40692;BME280;26377;53.344;14.886;2022-11-11T06:07:06;102474.52;;;11.32;69.78
40692;BME280;26377;53.344;14.886;2022-11-11T06:09:52;102481.16;;;11.32;69.72
40692;BME280;26377;53.344;14.886;2022-11-11T06:12:41;102493.12;;;11.32;69.71
40692;BME280;26377;53.344;14.886;2022-11-11T06:15:31;102490.46;;;11.32;69.71
40692;BME280;26377;53.344;14.886;2022-11-11T06:18:17;102479.80;;;11.34;69.71
40692;BME280;26377;53.344;14.886;2022-11-11T06:21:05;102478.88;;;11.35;69.72
40692;BME280;26377;53.344;14.886;2022-11-11T06:23:51;102479.76;;;11.35;69.72
40692;BME280;26377;53.344;14.886;2022-11-11T06:26:36;102479.24;;;11.37;69.73
40692;BME280;26377;53.344;14.886;2022-11-11T06:29:22;102476.14;;;11.38;69.73
40692;BME280;26377;53.344;14.886;2022-11-11T06:32:08;102478.80;;;11.38;69.71
40692;BME280;26377;53.344;14.886;2022-11-11T06:34:53;102476.07;;;11.39;69.71
40692;BME280;26377;53.344;14.886;2022-11-11T06:37:40;102475.62;;;11.40;69.70
40692;BME280;26377;53.344;14.886;2022-11-11T06:40:25;102475.62;;;11.40;69.72
40692;BME280;26377;53.344;14.886;2022-11-11T06:43:14;102480.91;;;11.41;69.75
40692;BME280;26377;53.344;14.886;2022-11-11T06:46:01;102483.52;;;11.43;69.74
40692;BME280;26377;53.344;14.886;2022-11-11T06:48:47;102477.70;;;11.45;69.73
40692;BME280;26377;53.344;14.886;2022-11-11T06:51:32;102474.11;;;11.46;69.74
40692;BME280;26377;53.344;14.886;2022-11-11T06:54:21;102471.42;;;11.47;69.76
40692;BME280;26377;53.344;14.886;2022-11-11T06:57:07;102470.94;;;11.49;69.75
40692;BME280;26377;53.344;14.886;2022-11-11T06:59:55;102472.70;;;11.49;69.73
40692;BME280;26377;53.344;14.886;2022-11-11T07:02:43;102470.45;;;11.50;69.73
40692;BME280;26377;53.344;14.886;2022-11-11T07:05:29;102471.34;;;11.50;69.71
40692;BME280;26377;53.344;14.886;2022-11-11T07:08:17;102475.73;;;11.51;69.74
40692;BME280;26377;53.344;14.886;2022-11-11T07:11:02;102476.14;;;11.52;69.70
40692;BME280;26377;53.344;14.886;2022-11-11T07:13:48;102477.84;;;11.55;69.70
40692;BME280;26377;53.344;14.886;2022-11-11T07:16:34;102479.17;;;11.55;69.71
40692;BME280;26377;53.344;14.886;2022-11-11T07:19:20;102475.51;;;11.59;69.73
40692;BME280;26377;53.344;14.886;2022-11-11T07:22:06;102471.48;;;11.62;69.76
40692;BME280;26377;53.344;14.886;2022-11-11T07:24:53;102475.35;;;11.65;69.72
40692;BME280;26377;53.344;14.886;2022-11-11T07:27:40;102486.84;;;11.67;69.73
40692;BME280;26377;53.344;14.886;2022-11-11T07:30:27;102493.03;;;11.67;69.68
40692;BME280;26377;53.344;14.886;2022-11-11T07:33:12;102497.80;;;11.71;69.73
40692;BME280;26377;53.344;14.886;2022-11-11T07:36:01;102506.14;;;11.73;69.71
40692;BME280;26377;53.344;14.886;2022-11-11T07:38:48;102502.97;;;11.75;69.68
40692;BME280;26377;53.344;14.886;2022-11-11T07:41:34;102501.59;;;11.77;69.68
40692;BME280;26377;53.344;14.886;2022-11-11T07:44:20;102505.47;;;11.81;69.67
40692;BME280;26377;53.344;14.886;2022-11-11T07:47:06;102512.48;;;11.84;69.67
40692;BME280;26377;53.344;14.886;2022-11-11T07:49:52;102524.34;;;11.87;69.67
40692;BME280;26377;53.344;14.886;2022-11-11T07:52:39;102526.51;;;11.89;69.64
40692;BME280;26377;53.344;14.886;2022-11-11T07:55:25;102529.50;;;11.93;69.65
40692;BME280;26377;53.344;14.886;2022-11-11T07:58:13;102536.03;;;11.96;69.61
40692;BME280;26377;53.344;14.886;2022-11-11T08:01:00;102542.69;;;11.96;69.51
40692;BME280;26377;53.344;14.886;2022-11-11T08:03:46;102554.66;;;11.96;69.54
40692;BME280;26377;53.344;14.886;2022-11-11T08:06:35;102561.27;;;11.97;69.52
40692;BME280;26377;53.344;14.886;2022-11-11T08:09:21;102566.98;;;11.98;69.45
40692;BME280;26377;53.344;14.886;2022-11-11T08:12:08;102567.88;;;11.99;69.46
40692;BME280;26377;53.344;14.886;2022-11-11T08:15:12;102576.22;;;12.01;69.46
40692;BME280;26377;53.344;14.886;2022-11-11T08:17:59;102570.90;;;12.01;69.42
40692;BME280;26377;53.344;14.886;2022-11-11T08:20:49;102566.91;;;12.01;69.37
40692;BME280;26377;53.344;14.886;2022-11-11T08:23:35;102569.09;;;12.02;69.38
40692;BME280;26377;53.344;14.886;2022-11-11T08:26:22;102571.27;;;12.04;69.42
40692;BME280;26377;53.344;14.886;2022-11-11T08:29:07;102576.95;;;12.06;69.35
40692;BME280;26377;53.344;14.886;2022-11-11T08:31:54;102585.82;;;12.07;69.28
40692;BME280;26377;53.344;14.886;2022-11-11T08:34:43;102585.82;;;12.07;69.29
40692;BME280;26377;53.344;14.886;2022-11-11T08:37:28;102579.98;;;12.09;69.28
40692;BME280;26377;53.344;14.886;2022-11-11T08:40:15;102592.77;;;12.11;69.23
40692;BME280;26377;53.344;14.886;2022-11-11T08:43:02;102587.00;;;12.11;69.23
40692;BME280;26377;53.344;14.886;2022-11-11T08:45:53;102591.88;;;12.12;69.20
40692;BME280;26377;53.344;14.886;2022-11-11T08:48:39;102594.05;;;12.12;69.14
40692;BME280;26377;53.344;14.886;2022-11-11T08:51:24;102605.22;;;12.10;69.13
40692;BME280;26377;53.344;14.886;2022-11-11T08:54:11;102601.62;;;12.11;69.15
40692;BME280;26377;53.344;14.886;2022-11-11T08:56:57;102609.17;;;12.12;69.10
40692;BME280;26377;53.344;14.886;2022-11-11T08:59:43;102611.39;;;12.11;69.09
40692;BME280;26377;53.344;14.886;2022-11-11T09:02:28;102610.02;;;12.12;69.07
40692;BME280;26377;53.344;14.886;2022-11-11T09:05:14;102604.17;;;12.16;69.17
40692;BME280;26377;53.344;14.886;2022-11-11T09:08:02;102616.92;;;12.19;69.12
40692;BME280;26377;53.344;14.886;2022-11-11T09:10:50;102617.73;;;12.21;69.13
40692;BME280;26377;53.344;14.886;2022-11-11T09:13:36;102612.81;;;12.22;69.02
40692;BME280;26377;53.344;14.886;2022-11-11T09:16:23;102613.66;;;12.24;69.06
40692;BME280;26377;53.344;14.886;2022-11-11T09:19:08;102618.83;;;12.29;69.05
40692;BME280;26377;53.344;14.886;2022-11-11T09:21:54;102621.42;;;12.32;69.00
40692;BME280;26377;53.344;14.886;2022-11-11T09:24:39;102620.90;;;12.34;69.01
40692;BME280;26377;53.344;14.886;2022-11-11T09:27:25;102619.93;;;12.36;69.00
40692;BME280;26377;53.344;14.886;2022-11-11T09:30:12;102621.14;;;12.41;69.01
40692;BME280;26377;53.344;14.886;2022-11-11T09:33:00;102624.17;;;12.43;68.96
40692;BME280;26377;53.344;14.886;2022-11-11T09:35:47;102617.88;;;12.46;68.95
40692;BME280;26377;53.344;14.886;2022-11-11T09:38:32;102628.85;;;12.50;68.99
40692;BME280;26377;53.344;14.886;2022-11-11T09:41:21;102636.76;;;12.53;68.93
40692;BME280;26377;53.344;14.886;2022-11-11T09:48:00;102629.54;;;12.56;68.87
40692;BME280;26377;53.344;14.886;2022-11-11T09:51:00;102634.82;;;12.58;68.85
40692;BME280;26377;53.344;14.886;2022-11-11T09:53:52;102633.41;;;12.59;68.83
40692;BME280;26377;53.344;14.886;2022-11-11T09:56:44;102624.53;;;12.60;68.79
40692;BME280;26377;53.344;14.886;2022-11-11T09:59:39;102626.76;;;12.59;68.82
40692;BME280;26377;53.344;14.886;2022-11-11T10:02:52;102625.39;;;12.61;68.79
40692;BME280;26377;53.344;14.886;2022-11-11T10:06:08;102625.39;;;12.61;68.75
40692;BME280;26377;53.344;14.886;2022-11-11T10:09:08;102624.98;;;12.60;68.74
40692;BME280;26377;53.344;14.886;2022-11-11T10:12:06;102627.23;;;12.59;68.78
40692;BME280;26377;53.344;14.886;2022-11-11T10:14:56;102626.31;;;12.60;68.80
40692;BME280;26377;53.344;14.886;2022-11-11T10:21:04;102615.14;;;12.62;68.82
40692;BME280;26377;53.344;14.886;2022-11-11T10:23:54;102622.23;;;12.63;68.82
40692;BME280;26377;53.344;14.886;2022-11-11T10:26:43;102630.18;;;12.64;68.80
40692;BME280;26377;53.344;14.886;2022-11-11T10:29:40;102634.58;;;12.65;68.84
40692;BME280;26377;53.344;14.886;2022-11-11T10:32:31;102642.00;;;12.69;68.86
40692;BME280;26377;53.344;14.886;2022-11-11T10:35:26;102642.37;;;12.71;68.81
40692;BME280;26377;53.344;14.886;2022-11-11T10:38:32;102648.50;;;12.73;68.84
40692;BME280;26377;53.344;14.886;2022-11-11T10:44:33;102644.59;;;12.72;68.78
40692;BME280;26377;53.344;14.886;2022-11-11T10:50:43;102635.62;;;12.74;68.75
40692;BME280;26377;53.344;14.886;2022-11-11T10:53:39;102634.78;;;12.72;68.66
40692;BME280;26377;53.344;14.886;2022-11-11T10:57:08;102635.67;;;12.73;68.74
40692;BME280;26377;53.344;14.886;2022-11-11T11:00:02;102633.41;;;12.74;68.69
40692;BME280;26377;53.344;14.886;2022-11-11T11:02:58;102640.44;;;12.76;68.74
40692;BME280;26377;53.344;14.886;2022-11-11T11:25:10;102634.69;;;13.44;68.19
40692;BME280;26377;53.344;14.886;2022-11-11T11:28:07;102632.69;;;13.37;68.20
40692;BME280;26377;53.344;14.886;2022-11-11T11:31:02;102632.02;;;13.31;68.27
40692;BME280;26377;53.344;14.886;2022-11-11T11:33:52;102649.97;;;13.26;68.30
40692;BME280;26377;53.344;14.886;2022-11-11T11:36:38;102652.36;;;13.20;68.29
40692;BME280;26377;53.344;14.886;2022-11-11T12:29:34;102651.17;;;13.29;68.04
40692;BME280;26377;53.344;14.886;2022-11-11T12:32:38;102655.43;;;13.21;68.07
40692;BME280;26377;53.344;14.886;2022-11-11T12:36:10;102654.31;;;13.15;68.12
40692;BME280;26377;53.344;14.886;2022-11-11T12:39:01;102657.27;;;13.06;68.02
40692;BME280;26377;53.344;14.886;2022-11-11T12:42:01;102662.41;;;12.99;68.09
40692;BME280;26377;53.344;14.886;2022-11-11T12:45:13;102663.83;;;12.94;68.04
40692;BME280;26377;53.344;14.886;2022-11-11T12:51:26;102668.56;;;12.85;68.16
40692;BME280;26377;53.344;14.886;2022-11-11T13:12:51;102668.55;;;12.72;68.25
40692;BME280;26377;53.344;14.886;2022-11-11T13:15:49;102659.64;;;12.73;68.20
40692;BME280;26377;53.344;14.886;2022-11-11T13:22:22;102659.28;;;12.70;68.18
40692;BME280;26377;53.344;14.886;2022-11-11T13:25:13;102661.94;;;12.70;68.23
40692;BME280;26377;53.344;14.886;2022-11-11T13:28:44;102663.67;;;12.71;68.25
40692;BME280;26377;53.344;14.886;2022-11-11T13:34:24;102668.96;;;12.73;68.24
40692;BME280;26377;53.344;14.886;2022-11-11T13:37:27;102665.05;;;12.70;68.18
40692;BME280;26377;53.344;14.886;2022-11-11T13:40:41;102668.19;;;12.69;68.20
40692;BME280;26377;53.344;14.886;2022-11-11T13:43:21;102668.64;;;12.69;68.17
40692;BME280;26377;53.344;14.886;2022-11-11T13:49:25;102672.67;;;12.67;68.16
40692;BME280;26377;53.344;14.886;2022-11-11T13:52:32;102668.72;;;12.66;68.07
40692;BME280;26377;53.344;14.886;2022-11-11T13:55:28;102673.72;;;12.62;68.03
40692;BME280;26377;53.344;14.886;2022-11-11T13:58:24;102676.02;;;12.59;68.06
40692;BME280;26377;53.344;14.886;2022-11-11T14:01:16;102677.87;;;12.57;68.05
40692;BME280;26377;53.344;14.886;2022-11-11T14:04:04;102679.23;;;12.56;67.99
40692;BME280;26377;53.344;14.886;2022-11-11T14:06:52;102688.16;;;12.55;67.96
40692;BME280;26377;53.344;14.886;2022-11-11T14:09:54;102685.53;;;12.53;67.92
40692;BME280;26377;53.344;14.886;2022-11-11T14:12:50;102685.13;;;12.52;67.92
40692;BME280;26377;53.344;14.886;2022-11-11T14:15:39;102683.39;;;12.51;67.96
40692;BME280;26377;53.344;14.886;2022-11-11T14:18:35;102682.91;;;12.52;67.96
40692;BME280;26377;53.344;14.886;2022-11-11T14:21:45;102685.57;;;12.52;67.93
40692;BME280;26377;53.344;14.886;2022-11-11T14:27:29;102680.28;;;12.50;67.90
40692;BME280;26377;53.344;14.886;2022-11-11T14:30:34;102692.34;;;12.49;67.88
40692;BME280;26377;53.344;14.886;2022-11-11T14:39:53;102690.98;;;12.34;67.74
40692;BME280;26377;53.344;14.886;2022-11-11T14:42:41;102689.73;;;12.31;67.72
40692;BME280;26377;53.344;14.886;2022-11-11T14:51:53;102693.91;;;12.25;67.75
40692;BME280;26377;53.344;14.886;2022-11-11T14:54:49;102692.61;;;12.24;67.78
40692;BME280;26377;53.344;14.886;2022-11-11T14:57:49;102694.05;;;12.21;67.74
40692;BME280;26377;53.344;14.886;2022-11-11T15:00:59;102697.67;;;12.18;67.73
40692;BME280;26377;53.344;14.886;2022-11-11T15:03:51;102703.52;;;12.15;67.73
40692;BME280;26377;53.344;14.886;2022-11-11T15:06:47;102710.27;;;12.12;67.75
40692;BME280;26377;53.344;14.886;2022-11-11T15:10:06;102711.64;;;12.10;67.76
40692;BME280;26377;53.344;14.886;2022-11-11T15:19:31;102721.98;;;12.05;67.78
40692;BME280;26377;53.344;14.886;2022-11-11T15:22:48;102724.23;;;12.04;67.84
40692;BME280;26377;53.344;14.886;2022-11-11T15:35:25;102726.97;;;12.01;67.95
40692;BME280;26377;53.344;14.886;2022-11-11T15:38:20;102728.77;;;12.00;67.98
40692;BME280;26377;53.344;14.886;2022-11-11T15:41:18;102727.52;;;11.97;67.92
40692;BME280;26377;53.344;14.886;2022-11-11T15:44:29;102726.32;;;11.93;67.89
40692;BME280;26377;53.344;14.886;2022-11-11T15:47:18;102726.39;;;11.90;67.98
40692;BME280;26377;53.344;14.886;2022-11-11T15:53:21;102736.17;;;11.88;67.99
40692;BME280;26377;53.344;14.886;2022-11-11T15:56:07;102741.56;;;11.86;67.98
40692;BME280;26377;53.344;14.886;2022-11-11T15:58:53;102751.34;;;11.84;67.99
40692;BME280;26377;53.344;14.886;2022-11-11T16:01:39;102758.03;;;11.83;67.95
40692;BME280;26377;53.344;14.886;2022-11-11T16:04:24;102753.70;;;11.79;67.88
40692;BME280;26377;53.344;14.886;2022-11-11T16:07:25;102755.67;;;11.72;67.83
40692;BME280;26377;53.344;14.886;2022-11-11T16:10:18;102756.25;;;11.67;67.83
40692;BME280;26377;53.344;14.886;2022-11-11T16:14:06;102758.63;;;11.60;67.80
40692;BME280;26377;53.344;14.886;2022-11-11T16:16:30;102753.88;;;11.54;67.83
40692;BME280;26377;53.344;14.886;2022-11-11T16:19:34;102762.45;;;11.47;67.80
40692;BME280;26377;53.344;14.886;2022-11-11T16:22:27;102770.61;;;11.40;67.79
40692;BME280;26377;53.344;14.886;2022-11-11T16:25:19;102765.48;;;11.32;67.82
40692;BME280;26377;53.344;14.886;2022-11-11T16:28:06;102772.22;;;11.28;67.82
40692;BME280;26377;53.344;14.886;2022-11-11T16:30:52;102769.70;;;11.22;67.80
40692;BME280;26377;53.344;14.886;2022-11-11T16:33:38;102775.20;;;11.14;67.77
40692;BME280;26377;53.344;14.886;2022-11-11T16:36:26;102773.13;;;11.08;67.79
40692;BME280;26377;53.344;14.886;2022-11-11T16:39:20;102768.41;;;11.01;67.79
40692;BME280;26377;53.344;14.886;2022-11-11T16:45:18;102770.58;;;10.84;67.77
40692;BME280;26377;53.344;14.886;2022-11-11T16:51:24;102774.03;;;10.67;67.86
40692;BME280;26377;53.344;14.886;2022-11-11T16:54:30;102766.25;;;10.58;67.89
40692;BME280;26377;53.344;14.886;2022-11-11T16:57:26;102769.50;;;10.50;67.91
40692;BME280;26377;53.344;14.886;2022-11-11T17:00:16;102766.59;;;10.42;67.87
40692;BME280;26377;53.344;14.886;2022-11-11T17:03:18;102766.36;;;10.32;67.87
40692;BME280;26377;53.344;14.886;2022-11-11T17:06:10;102763.43;;;10.22;67.83
40692;BME280;26377;53.344;14.886;2022-11-11T17:08:57;102761.88;;;10.10;67.81
40692;BME280;26377;53.344;14.886;2022-11-11T17:11:44;102771.35;;;10.00;67.87
40692;BME280;26377;53.344;14.886;2022-11-11T17:14:32;102775.47;;;9.92;67.91
40692;BME280;26377;53.344;14.886;2022-11-11T17:17:21;102774.30;;;9.83;67.94
40692;BME280;26377;53.344;14.886;2022-11-11T17:20:13;102777.56;;;9.72;67.90
40692;BME280;26377;53.344;14.886;2022-11-11T17:23:01;102776.86;;;9.63;67.95